sensor_id;sensor_type;location;lat;lon;timestamp;pressure;altitude;pressure_sealevel;temperature;humidity
43217;BME280;60511;42.686;23.300;2023-03-16T00:00:09;93796.56;;;22.34;26.75
43217;BME280;60511;42.686;23.300;2023-03-16T00:02:13;93857.91;;;22.71;27.18
43217;BME280;60511;42.686;23.300;2023-03-16T00:04:13;93664.84;;;21.45;27.08
43217;BME280;60511;42.686;23.300;2023-03-16T00:06:14;93832.50;;;22.45;26.48
43217;BME280;60511;42.686;23.300;2023-03-16T00:08:15;93872.50;;;22.66;26.85
43217;BME280;60511;42.686;23.300;2023-03-16T00:10:15;93870.56;;;22.66;26.47
43217;BME280;60511;42.686;23.300;2023-03-16T00:12:17;93859.72;;;22.63;27.08
43217;BME280;60511;42.686;23.300;2023-03-16T00:14:18;93873.22;;;22.63;26.74
43217;BME280;60511;42.686;23.300;2023-03-16T00:16:18;93769.13;;;22.01;26.97
43217;BME280;60511;42.686;23.300;2023-03-16T00:18:19;93810.28;;;22.25;26.76
43217;BME280;60511;42.686;23.300;2023-03-16T00:20:20;93851.44;;;22.49;26.58
43217;BME280;60511;42.686;23.300;2023-03-16T00:22:24;93871.28;;;22.63;26.92
43217;BME280;60511;42.686;23.300;2023-03-16T00:24:25;93878.59;;;22.63;26.59
43217;BME280;60511;42.686;23.300;2023-03-16T00:26:25;93824.16;;;22.23;27.02
43217;BME280;60511;42.686;23.300;2023-03-16T00:28:26;93891.63;;;22.57;26.96
43217;BME280;60511;42.686;23.300;2023-03-16T00:30:27;93833.53;;;22.33;26.86
43217;BME280;60511;42.686;23.300;2023-03-16T00:32:30;93791.78;;;21.97;26.84
43217;BME280;60511;42.686;23.300;2023-03-16T00:34:30;93802.50;;;21.93;26.97
43217;BME280;60511;42.686;23.300;2023-03-16T00:36:33;93800.38;;;22.06;26.97
43217;BME280;60511;42.686;23.300;2023-03-16T00:38:41;93835.75;;;22.04;27.10
43217;BME280;60511;42.686;23.300;2023-03-16T00:40:45;93720.59;;;21.44;27.23
43217;BME280;60511;42.686;23.300;2023-03-16T00:42:46;93757.88;;;21.69;27.47
43217;BME280;60511;42.686;23.300;2023-03-16T00:44:46;93735.72;;;21.53;27.06
43217;BME280;60511;42.686;23.300;2023-03-16T00:46:47;93907.38;;;22.52;27.01
43217;BME280;60511;42.686;23.300;2023-03-16T00:48:47;93893.50;;;22.53;27.00
43217;BME280;60511;42.686;23.300;2023-03-16T00:50:47;93911.19;;;22.51;26.35
43217;BME280;60511;42.686;23.300;2023-03-16T00:52:48;93909.25;;;22.51;26.87
43217;BME280;60511;42.686;23.300;2023-03-16T00:54:49;93875.47;;;22.31;27.15
43217;BME280;60511;42.686;23.300;2023-03-16T00:56:52;93848.09;;;22.29;26.74
43217;BME280;60511;42.686;23.300;2023-03-16T00:58:52;93894.94;;;22.47;27.12
43217;BME280;60511;42.686;23.300;2023-03-16T01:00:56;93819.72;;;21.85;27.15
43217;BME280;60511;42.686;23.300;2023-03-16T01:02:58;93810.84;;;21.84;27.25
43217;BME280;60511;42.686;23.300;2023-03-16T01:04:58;93857.19;;;22.20;26.96
43217;BME280;60511;42.686;23.300;2023-03-16T01:06:59;93805.97;;;21.94;27.20
43217;BME280;60511;42.686;23.300;2023-03-16T01:08:59;93843.66;;;22.17;27.36
43217;BME280;60511;42.686;23.300;2023-03-16T01:11:12;93802.72;;;21.81;27.44
43217;BME280;60511;42.686;23.300;2023-03-16T01:13:15;93909.53;;;22.42;27.10
43217;BME280;60511;42.686;23.300;2023-03-16T01:15:15;93834.22;;;22.03;27.20
43217;BME280;60511;42.686;23.300;2023-03-16T01:17:16;93879.38;;;22.33;26.80
43217;BME280;60511;42.686;23.300;2023-03-16T01:19:17;93891.41;;;22.39;26.90
43217;BME280;60511;42.686;23.300;2023-03-16T01:21:18;93907.88;;;22.34;27.08
43217;BME280;60511;42.686;23.300;2023-03-16T01:23:20;93914.34;;;22.30;26.71
43217;BME280;60511;42.686;23.300;2023-03-16T01:25:21;93845.28;;;21.98;26.77
43217;BME280;60511;42.686;23.300;2023-03-16T01:27:21;93846.03;;;21.95;26.84
43217;BME280;60511;42.686;23.300;2023-03-16T01:29:25;93904.41;;;22.34;27.01
43217;BME280;60511;42.686;23.300;2023-03-16T01:31:25;93767.72;;;21.35;26.64
43217;BME280;60511;42.686;23.300;2023-03-16T01:33:27;93907.09;;;22.34;26.69
43217;BME280;60511;42.686;23.300;2023-03-16T01:35:28;93893.09;;;22.24;26.92
43217;BME280;60511;42.686;23.300;2023-03-16T01:37:28;93742.41;;;21.39;26.95
43217;BME280;60511;42.686;23.300;2023-03-16T01:39:29;93850.75;;;22.02;27.04
43217;BME280;60511;42.686;23.300;2023-03-16T01:41:29;93791.91;;;21.54;26.84
43217;BME280;60511;42.686;23.300;2023-03-16T01:43:31;93835.44;;;21.83;26.74
43217;BME280;60511;42.686;23.300;2023-03-16T01:48:05;93903.72;;;22.40;26.80
43217;BME280;60511;42.686;23.300;2023-03-16T01:50:07;93895.69;;;22.21;26.76
43217;BME280;60511;42.686;23.300;2023-03-16T01:52:20;93928.72;;;22.37;26.90
43217;BME280;60511;42.686;23.300;2023-03-16T01:54:25;93912.56;;;22.37;27.52
43217;BME280;60511;42.686;23.300;2023-03-16T01:56:58;93916.78;;;22.38;27.15
43217;BME280;60511;42.686;23.300;2023-03-16T01:59:01;93924.03;;;22.34;26.83
43217;BME280;60511;42.686;23.300;2023-03-16T02:01:04;93920.63;;;22.37;27.11
43217;BME280;60511;42.686;23.300;2023-03-16T02:03:08;93884.75;;;22.10;27.13
43217;BME280;60511;42.686;23.300;2023-03-16T02:05:42;93938.56;;;22.26;27.19
43217;BME280;60511;42.686;23.300;2023-03-16T02:07:46;93831.34;;;21.66;26.44
43217;BME280;60511;42.686;23.300;2023-03-16T02:09:49;93935.09;;;22.25;27.07
43217;BME280;60511;42.686;23.300;2023-03-16T02:11:52;93937.03;;;22.29;26.96
43217;BME280;60511;42.686;23.300;2023-03-16T02:13:56;93936.63;;;22.26;26.83
43217;BME280;60511;42.686;23.300;2023-03-16T02:15:58;93874.84;;;21.91;26.79
43217;BME280;60511;42.686;23.300;2023-03-16T02:17:59;93936.41;;;22.35;26.56
43217;BME280;60511;42.686;23.300;2023-03-16T02:22:25;93903.13;;;22.04;27.04
43217;BME280;60511;42.686;23.300;2023-03-16T02:24:25;93912.06;;;22.08;26.89
43217;BME280;60511;42.686;23.300;2023-03-16T02:26:35;93950.53;;;22.29;26.27
43217;BME280;60511;42.686;23.300;2023-03-16T02:29:01;93948.59;;;22.29;26.66
43217;BME280;60511;42.686;23.300;2023-03-16T02:31:05;93913.47;;;21.99;26.84
43217;BME280;60511;42.686;23.300;2023-03-16T02:33:06;93949.56;;;22.17;26.86
43217;BME280;60511;42.686;23.300;2023-03-16T02:35:08;93750.91;;;20.95;27.20
43217;BME280;60511;42.686;23.300;2023-03-16T02:37:09;93916.94;;;21.99;26.83
43217;BME280;60511;42.686;23.300;2023-03-16T02:39:09;93971.38;;;22.32;26.65
43217;BME280;60511;42.686;23.300;2023-03-16T02:41:12;93959.03;;;22.31;26.91
43217;BME280;60511;42.686;23.300;2023-03-16T02:43:19;93910.28;;;21.93;26.90
43217;BME280;60511;42.686;23.300;2023-03-16T02:45:25;93941.53;;;21.98;26.92
43217;BME280;60511;42.686;23.300;2023-03-16T02:47:36;93910.63;;;21.92;26.90
43217;BME280;60511;42.686;23.300;2023-03-16T02:49:42;93924.53;;;21.94;26.83
43217;BME280;60511;42.686;23.300;2023-03-16T02:51:44;93805.97;;;21.24;26.53
43217;BME280;60511;42.686;23.300;2023-03-16T02:53:45;93940.22;;;22.11;26.81
43217;BME280;60511;42.686;23.300;2023-03-16T02:55:46;93865.94;;;21.64;26.76
43217;BME280;60511;42.686;23.300;2023-03-16T02:57:47;93969.63;;;22.20;26.74
43217;BME280;60511;42.686;23.300;2023-03-16T02:59:47;93947.75;;;22.02;26.69
43217;BME280;60511;42.686;23.300;2023-03-16T03:01:48;93959.72;;;22.04;26.93
43217;BME280;60511;42.686;23.300;2023-03-16T03:03:48;93972.31;;;22.20;26.97
43217;BME280;60511;42.686;23.300;2023-03-16T03:05:49;93985.38;;;22.18;26.86
43217;BME280;60511;42.686;23.300;2023-03-16T03:07:49;93980.50;;;22.23;27.03
43217;BME280;60511;42.686;23.300;2023-03-16T03:09:50;93820.94;;;21.22;26.77
43217;BME280;60511;42.686;23.300;2023-03-16T03:11:52;93950.63;;;22.13;26.96
43217;BME280;60511;42.686;23.300;2023-03-16T03:13:54;93993.31;;;22.30;27.33
43217;BME280;60511;42.686;23.300;2023-03-16T03:15:54;93986.97;;;22.22;26.86
43217;BME280;60511;42.686;23.300;2023-03-16T03:17:54;93913.81;;;21.74;26.69
43217;BME280;60511;42.686;23.300;2023-03-16T03:19:59;93967.81;;;22.04;27.22
43217;BME280;60511;42.686;23.300;2023-03-16T03:22:07;93968.13;;;21.99;26.53
43217;BME280;60511;42.686;23.300;2023-03-16T03:24:08;93999.69;;;22.22;26.96
43217;BME280;60511;42.686;23.300;2023-03-16T03:26:08;93992.72;;;22.21;26.70
43217;BME280;60511;42.686;23.300;2023-03-16T03:28:09;93988.66;;;22.07;26.85
43217;BME280;60511;42.686;23.300;2023-03-16T03:30:12;93955.66;;;21.91;26.92
43217;BME280;60511;42.686;23.300;2023-03-16T03:32:13;93998.44;;;22.16;26.83
43217;BME280;60511;42.686;23.300;2023-03-16T03:34:13;94008.47;;;22.19;26.78
43217;BME280;60511;42.686;23.300;2023-03-16T03:36:14;93958.34;;;21.91;26.85
43217;BME280;60511;42.686;23.300;2023-03-16T03:38:15;94001.78;;;22.09;26.75
43217;BME280;60511;42.686;23.300;2023-03-16T03:40:16;93994.56;;;21.94;26.50
43217;BME280;60511;42.686;23.300;2023-03-16T03:42:17;93925.38;;;21.55;26.90
43217;BME280;60511;42.686;23.300;2023-03-16T03:44:18;93918.88;;;21.37;26.70
43217;BME280;60511;42.686;23.300;2023-03-16T03:46:18;93960.44;;;21.78;27.29
43217;BME280;60511;42.686;23.300;2023-03-16T03:48:19;93912.59;;;21.49;26.67
43217;BME280;60511;42.686;23.300;2023-03-16T03:50:20;94019.16;;;22.12;26.81
43217;BME280;60511;42.686;23.300;2023-03-16T03:52:21;93996.19;;;21.98;27.03
43217;BME280;60511;42.686;23.300;2023-03-16T03:54:21;94018.38;;;22.11;26.42
43217;BME280;60511;42.686;23.300;2023-03-16T03:56:21;94041.91;;;22.14;27.06
43217;BME280;60511;42.686;23.300;2023-03-16T03:58:22;93994.03;;;21.84;26.83
43217;BME280;60511;42.686;23.300;2023-03-16T04:00:22;93859.28;;;20.96;26.77
43217;BME280;60511;42.686;23.300;2023-03-16T04:02:23;93871.44;;;21.09;27.16
43217;BME280;60511;42.686;23.300;2023-03-16T04:04:23;93951.97;;;21.57;26.94
43217;BME280;60511;42.686;23.300;2023-03-16T04:06:23;94041.66;;;22.23;26.97
43217;BME280;60511;42.686;23.300;2023-03-16T04:08:24;94019.44;;;22.06;27.02
43217;BME280;60511;42.686;23.300;2023-03-16T04:10:29;94048.66;;;22.24;26.83
43217;BME280;60511;42.686;23.300;2023-03-16T04:12:30;94024.13;;;22.10;27.00
43217;BME280;60511;42.686;23.300;2023-03-16T04:14:31;94032.47;;;22.24;26.65
43217;BME280;60511;42.686;23.300;2023-03-16T04:16:31;94027.59;;;22.10;26.79
43217;BME280;60511;42.686;23.300;2023-03-16T04:18:33;93967.69;;;21.74;26.88
43217;BME280;60511;42.686;23.300;2023-03-16T04:20:37;93984.22;;;21.96;26.73
43217;BME280;60511;42.686;23.300;2023-03-16T04:22:37;93946.34;;;21.65;26.82
43217;BME280;60511;42.686;23.300;2023-03-16T04:24:38;94053.69;;;22.25;27.06
43217;BME280;60511;42.686;23.300;2023-03-16T04:26:40;93942.41;;;21.40;27.21
43217;BME280;60511;42.686;23.300;2023-03-16T04:28:41;94011.88;;;21.93;26.93
43217;BME280;60511;42.686;23.300;2023-03-16T04:30:42;94014.16;;;21.91;27.20
43217;BME280;60511;42.686;23.300;2023-03-16T04:32:43;94039.09;;;22.07;27.37
43217;BME280;60511;42.686;23.300;2023-03-16T04:34:43;94012.75;;;21.77;27.11
43217;BME280;60511;42.686;23.300;2023-03-16T04:36:44;94034.41;;;22.04;27.21
43217;BME280;60511;42.686;23.300;2023-03-16T04:38:44;94049.06;;;22.06;27.27
43217;BME280;60511;42.686;23.300;2023-03-16T04:40:44;93954.13;;;21.48;26.94
43217;BME280;60511;42.686;23.300;2023-03-16T04:42:46;94076.25;;;22.17;27.02
43217;BME280;60511;42.686;23.300;2023-03-16T04:44:46;94095.56;;;22.23;26.96
43217;BME280;60511;42.686;23.300;2023-03-16T04:46:47;93990.81;;;21.56;27.06
43217;BME280;60511;42.686;23.300;2023-03-16T04:48:47;94036.31;;;22.03;27.04
43217;BME280;60511;42.686;23.300;2023-03-16T04:50:48;94086.72;;;22.22;26.66
43217;BME280;60511;42.686;23.300;2023-03-16T04:52:48;93995.25;;;21.67;27.06
43217;BME280;60511;42.686;23.300;2023-03-16T04:54:48;93986.44;;;21.48;26.83
43217;BME280;60511;42.686;23.300;2023-03-16T04:56:49;94080.03;;;21.93;26.76
43217;BME280;60511;42.686;23.300;2023-03-16T04:58:49;94068.53;;;21.96;26.85
43217;BME280;60511;42.686;23.300;2023-03-16T05:00:53;94089.22;;;22.12;26.85
43217;BME280;60511;42.686;23.300;2023-03-16T05:02:54;94035.06;;;21.78;26.58
43217;BME280;60511;42.686;23.300;2023-03-16T05:04:54;94080.41;;;22.15;26.56
43217;BME280;60511;42.686;23.300;2023-03-16T05:06:55;94069.38;;;22.00;26.49
43217;BME280;60511;42.686;23.300;2023-03-16T05:08:58;94110.06;;;22.15;26.55
43217;BME280;60511;42.686;23.300;2023-03-16T05:10:59;93962.81;;;21.21;26.70
43217;BME280;60511;42.686;23.300;2023-03-16T05:12:59;94042.72;;;21.76;26.82
43217;BME280;60511;42.686;23.300;2023-03-16T05:15:00;94073.72;;;21.85;26.51
43217;BME280;60511;42.686;23.300;2023-03-16T05:17:01;94012.97;;;21.49;26.80
43217;BME280;60511;42.686;23.300;2023-03-16T05:19:02;94033.47;;;21.54;26.45
43217;BME280;60511;42.686;23.300;2023-03-16T05:21:04;93961.22;;;21.01;26.55
43217;BME280;60511;42.686;23.300;2023-03-16T05:23:04;94033.94;;;21.59;26.78
43217;BME280;60511;42.686;23.300;2023-03-16T05:25:07;94101.22;;;21.95;26.63
43217;BME280;60511;42.686;23.300;2023-03-16T05:27:08;94076.56;;;21.73;26.73
43217;BME280;60511;42.686;23.300;2023-03-16T05:29:08;94122.34;;;22.12;26.49
43217;BME280;60511;42.686;23.300;2023-03-16T05:31:10;94109.31;;;21.95;26.55
43217;BME280;60511;42.686;23.300;2023-03-16T05:33:10;94136.25;;;22.14;26.51
43217;BME280;60511;42.686;23.300;2023-03-16T05:35:11;94112.69;;;21.92;26.71
43217;BME280;60511;42.686;23.300;2023-03-16T05:37:12;94087.81;;;21.79;26.64
43217;BME280;60511;42.686;23.300;2023-03-16T05:39:13;94036.00;;;21.46;26.59
43217;BME280;60511;42.686;23.300;2023-03-16T05:41:13;94144.97;;;22.07;26.68
43217;BME280;60511;42.686;23.300;2023-03-16T05:43:14;94132.28;;;22.08;26.66
43217;BME280;60511;42.686;23.300;2023-03-16T05:45:15;94083.50;;;21.74;26.37
43217;BME280;60511;42.686;23.300;2023-03-16T05:47:16;94155.31;;;22.05;26.73
43217;BME280;60511;42.686;23.300;2023-03-16T05:49:16;94136.72;;;22.00;26.81
43217;BME280;60511;42.686;23.300;2023-03-16T05:51:17;94090.94;;;21.81;26.38
43217;BME280;60511;42.686;23.300;2023-03-16T05:53:18;94148.59;;;22.15;26.55
43217;BME280;60511;42.686;23.300;2023-03-16T05:55:19;94066.97;;;21.56;26.61
43217;BME280;60511;42.686;23.300;2023-03-16T05:57:19;94119.16;;;21.87;26.81
43217;BME280;60511;42.686;23.300;2023-03-16T05:59:19;94109.88;;;21.84;26.94
43217;BME280;60511;42.686;23.300;2023-03-16T06:01:20;94166.66;;;22.15;26.55
43217;BME280;60511;42.686;23.300;2023-03-16T06:03:21;94089.09;;;21.65;26.76
43217;BME280;60511;42.686;23.300;2023-03-16T06:05:21;94117.88;;;21.81;26.53
43217;BME280;60511;42.686;23.300;2023-03-16T06:07:23;94161.56;;;22.10;26.42
43217;BME280;60511;42.686;23.300;2023-03-16T06:09:23;94157.09;;;22.17;26.67
43217;BME280;60511;42.686;23.300;2023-03-16T06:11:24;94143.97;;;21.96;26.65
43217;BME280;60511;42.686;23.300;2023-03-16T06:13:24;94191.41;;;22.20;26.83
43217;BME280;60511;42.686;23.300;2023-03-16T06:15:25;94092.19;;;21.67;26.82
43217;BME280;60511;42.686;23.300;2023-03-16T06:17:26;94108.31;;;21.83;26.69
43217;BME280;60511;42.686;23.300;2023-03-16T06:19:26;94172.56;;;22.20;26.52
43217;BME280;60511;42.686;23.300;2023-03-16T06:21:26;94129.66;;;21.92;26.50
43217;BME280;60511;42.686;23.300;2023-03-16T06:23:27;94010.19;;;21.06;26.51
43217;BME280;60511;42.686;23.300;2023-03-16T06:25:27;94113.63;;;21.80;26.54
43217;BME280;60511;42.686;23.300;2023-03-16T06:27:28;94191.00;;;22.18;26.38
43217;BME280;60511;42.686;23.300;2023-03-16T06:29:28;94111.91;;;21.72;26.44
43217;BME280;60511;42.686;23.300;2023-03-16T06:31:29;94189.50;;;22.21;26.36
43217;BME280;60511;42.686;23.300;2023-03-16T06:33:30;94135.41;;;21.91;26.67
43217;BME280;60511;42.686;23.300;2023-03-16T06:35:30;94208.13;;;22.26;26.44
43217;BME280;60511;42.686;23.300;2023-03-16T06:37:31;94206.94;;;22.23;26.63
43217;BME280;60511;42.686;23.300;2023-03-16T06:39:31;94166.03;;;22.02;26.35
43217;BME280;60511;42.686;23.300;2023-03-16T06:41:32;94150.16;;;21.97;26.59
43217;BME280;60511;42.686;23.300;2023-03-16T06:43:34;94115.47;;;21.76;26.43
43217;BME280;60511;42.686;23.300;2023-03-16T06:45:35;94136.16;;;21.72;26.51
43217;BME280;60511;42.686;23.300;2023-03-16T06:47:36;94229.34;;;22.27;26.68
43217;BME280;60511;42.686;23.300;2023-03-16T06:49:36;94227.84;;;22.30;26.29
43217;BME280;60511;42.686;23.300;2023-03-16T06:51:37;94232.03;;;22.27;26.55
43217;BME280;60511;42.686;23.300;2023-03-16T06:53:37;94135.69;;;21.66;26.44
43217;BME280;60511;42.686;23.300;2023-03-16T06:55:37;94071.88;;;21.35;26.72
43217;BME280;60511;42.686;23.300;2023-03-16T06:57:38;94202.06;;;22.13;26.55
43217;BME280;60511;42.686;23.300;2023-03-16T06:59:38;94152.56;;;21.82;26.47
43217;BME280;60511;42.686;23.300;2023-03-16T07:01:39;94162.81;;;21.77;26.79
43217;BME280;60511;42.686;23.300;2023-03-16T07:03:39;94153.97;;;21.76;26.82
43217;BME280;60511;42.686;23.300;2023-03-16T07:05:41;94067.78;;;21.05;26.60
43217;BME280;60511;42.686;23.300;2023-03-16T07:07:41;94246.09;;;22.37;26.63
43217;BME280;60511;42.686;23.300;2023-03-16T07:09:42;94217.53;;;22.16;26.58
43217;BME280;60511;42.686;23.300;2023-03-16T07:11:42;94256.59;;;22.42;26.36
43217;BME280;60511;42.686;23.300;2023-03-16T07:13:43;94256.59;;;22.42;26.67
43217;BME280;60511;42.686;23.300;2023-03-16T07:15:44;94164.75;;;21.76;26.62
43217;BME280;60511;42.686;23.300;2023-03-16T07:17:44;94215.19;;;22.15;26.66
43217;BME280;60511;42.686;23.300;2023-03-16T07:19:45;94245.94;;;22.30;26.80
43217;BME280;60511;42.686;23.300;2023-03-16T07:21:45;94219.16;;;22.21;26.71
43217;BME280;60511;42.686;23.300;2023-03-16T07:23:46;94257.09;;;22.48;26.64
43217;BME280;60511;42.686;23.300;2023-03-16T07:25:46;94191.72;;;22.15;26.71
43217;BME280;60511;42.686;23.300;2023-03-16T07:27:47;94191.34;;;21.97;26.44
43217;BME280;60511;42.686;23.300;2023-03-16T07:29:48;94208.25;;;22.14;26.77
43217;BME280;60511;42.686;23.300;2023-03-16T07:31:55;94263.06;;;22.57;26.52
43217;BME280;60511;42.686;23.300;2023-03-16T07:33:55;94213.34;;;22.19;26.51
43217;BME280;60511;42.686;23.300;2023-03-16T07:35:56;94134.94;;;21.69;26.66
43217;BME280;60511;42.686;23.300;2023-03-16T07:37:56;94268.44;;;22.57;26.82
43217;BME280;60511;42.686;23.300;2023-03-16T07:39:57;94207.94;;;22.19;26.64
43217;BME280;60511;42.686;23.300;2023-03-16T07:41:57;94198.16;;;22.11;26.49
43217;BME280;60511;42.686;23.300;2023-03-16T07:43:58;94190.72;;;22.04;26.75
43217;BME280;60511;42.686;23.300;2023-03-16T07:45:58;94135.16;;;21.60;26.49
43217;BME280;60511;42.686;23.300;2023-03-16T07:47:59;94275.00;;;22.56;26.55
43217;BME280;60511;42.686;23.300;2023-03-16T07:49:59;94234.47;;;22.17;26.38
43217;BME280;60511;42.686;23.300;2023-03-16T07:52:00;94284.94;;;22.52;26.10
43217;BME280;60511;42.686;23.300;2023-03-16T07:54:00;94238.44;;;22.23;26.41
43217;BME280;60511;42.686;23.300;2023-03-16T07:56:01;94208.03;;;22.03;26.59
43217;BME280;60511;42.686;23.300;2023-03-16T07:58:02;94294.22;;;22.54;26.39
43217;BME280;60511;42.686;23.300;2023-03-16T08:00:04;94180.28;;;21.83;26.66
43217;BME280;60511;42.686;23.300;2023-03-16T08:02:17;94285.69;;;22.52;26.41
43217;BME280;60511;42.686;23.300;2023-03-16T08:04:18;94127.22;;;21.48;26.30
43217;BME280;60511;42.686;23.300;2023-03-16T08:06:19;94259.00;;;22.27;26.37
43217;BME280;60511;42.686;23.300;2023-03-16T08:08:20;94221.22;;;22.08;26.24
43217;BME280;60511;42.686;23.300;2023-03-16T08:10:22;94291.34;;;22.47;26.27
43217;BME280;60511;42.686;23.300;2023-03-16T08:12:23;94223.03;;;22.04;26.70
43217;BME280;60511;42.686;23.300;2023-03-16T08:14:23;94299.53;;;22.51;26.28
43217;BME280;60511;42.686;23.300;2023-03-16T08:16:24;94299.97;;;22.53;26.35
43217;BME280;60511;42.686;23.300;2023-03-16T08:18:25;94290.66;;;22.50;26.42
43217;BME280;60511;42.686;23.300;2023-03-16T08:20:27;94173.09;;;21.71;26.44
43217;BME280;60511;42.686;23.300;2023-03-16T08:22:28;94106.72;;;21.27;26.56
43217;BME280;60511;42.686;23.300;2023-03-16T08:24:30;94287.75;;;22.39;26.54
43217;BME280;60511;42.686;23.300;2023-03-16T08:26:31;94298.03;;;22.53;26.49
43217;BME280;60511;42.686;23.300;2023-03-16T08:28:31;94319.69;;;22.57;26.54
43217;BME280;60511;42.686;23.300;2023-03-16T08:30:32;94154.00;;;21.60;26.51
43217;BME280;60511;42.686;23.300;2023-03-16T08:32:32;94215.31;;;22.02;26.19
43217;BME280;60511;42.686;23.300;2023-03-16T08:34:33;94218.72;;;21.99;26.55
43217;BME280;60511;42.686;23.300;2023-03-16T08:36:35;94271.00;;;22.30;26.63
43217;BME280;60511;42.686;23.300;2023-03-16T08:38:37;94320.13;;;22.59;26.17
43217;BME280;60511;42.686;23.300;2023-03-16T08:40:39;94311.25;;;22.58;26.39
43217;BME280;60511;42.686;23.300;2023-03-16T08:42:49;94294.78;;;22.44;26.31
43217;BME280;60511;42.686;23.300;2023-03-16T08:44:49;94313.78;;;22.51;26.40
43217;BME280;60511;42.686;23.300;2023-03-16T08:46:53;94292.28;;;22.35;26.43
43217;BME280;60511;42.686;23.300;2023-03-16T08:48:53;94247.91;;;22.13;26.59
43217;BME280;60511;42.686;23.300;2023-03-16T08:50:55;94212.81;;;21.94;26.38
43217;BME280;60511;42.686;23.300;2023-03-16T08:52:55;94214.22;;;21.87;26.33
43217;BME280;60511;42.686;23.300;2023-03-16T08:54:55;94254.50;;;22.16;26.52
43217;BME280;60511;42.686;23.300;2023-03-16T08:57:02;94238.66;;;21.95;26.22
43217;BME280;60511;42.686;23.300;2023-03-16T08:59:02;94213.91;;;21.73;26.56
43217;BME280;60511;42.686;23.300;2023-03-16T09:01:04;94210.97;;;21.78;26.50
43217;BME280;60511;42.686;23.300;2023-03-16T09:03:05;94227.13;;;21.78;25.96
43217;BME280;60511;42.686;23.300;2023-03-16T09:05:12;94322.94;;;22.46;26.09
43217;BME280;60511;42.686;23.300;2023-03-16T09:07:13;94253.91;;;22.06;26.13
43217;BME280;60511;42.686;23.300;2023-03-16T09:09:14;94221.38;;;21.80;25.91
43217;BME280;60511;42.686;23.300;2023-03-16T09:11:16;94216.97;;;21.72;26.08
43217;BME280;60511;42.686;23.300;2023-03-16T09:13:17;94219.41;;;21.61;25.81
43217;BME280;60511;42.686;23.300;2023-03-16T09:15:19;94336.09;;;22.48;25.93
43217;BME280;60511;42.686;23.300;2023-03-16T09:17:20;94156.38;;;21.30;26.05
43217;BME280;60511;42.686;23.300;2023-03-16T09:19:20;94269.06;;;21.95;25.90
43217;BME280;60511;42.686;23.300;2023-03-16T09:21:24;94332.97;;;22.46;26.03
43217;BME280;60511;42.686;23.300;2023-03-16T09:23:25;94348.72;;;22.44;25.91
43217;BME280;60511;42.686;23.300;2023-03-16T09:25:25;94286.22;;;22.06;25.84
43217;BME280;60511;42.686;23.300;2023-03-16T09:27:25;94096.03;;;20.64;26.17
43217;BME280;60511;42.686;23.300;2023-03-16T09:29:26;94339.41;;;22.41;26.24
43217;BME280;60511;42.686;23.300;2023-03-16T09:31:26;94218.84;;;21.52;25.96
43217;BME280;60511;42.686;23.300;2023-03-16T09:33:27;94176.97;;;21.38;26.29
43217;BME280;60511;42.686;23.300;2023-03-16T09:35:29;94215.63;;;21.62;26.43
43217;BME280;60511;42.686;23.300;2023-03-16T09:37:32;94257.50;;;21.95;26.11
43217;BME280;60511;42.686;23.300;2023-03-16T09:39:32;94331.13;;;22.50;26.24
43217;BME280;60511;42.686;23.300;2023-03-16T09:48:14;94348.84;;;22.51;26.47
43217;BME280;60511;42.686;23.300;2023-03-16T09:50:22;94254.44;;;21.96;26.30
43217;BME280;60511;42.686;23.300;2023-03-16T09:56:48;94250.41;;;21.86;26.60
43217;BME280;60511;42.686;23.300;2023-03-16T09:58:50;94208.41;;;21.34;26.31
43217;BME280;60511;42.686;23.300;2023-03-16T10:05:27;94357.38;;;22.53;26.18
43217;BME280;60511;42.686;23.300;2023-03-16T10:09:55;94238.81;;;21.86;26.18
43217;BME280;60511;42.686;23.300;2023-03-16T10:11:57;94319.19;;;22.32;26.43
43217;BME280;60511;42.686;23.300;2023-03-16T10:14:34;94350.09;;;22.54;26.35
43217;BME280;60511;42.686;23.300;2023-03-16T10:18:58;94249.97;;;21.84;26.46
43217;BME280;60511;42.686;23.300;2023-03-16T10:21:01;94353.22;;;22.56;26.29
43217;BME280;60511;42.686;23.300;2023-03-16T10:23:22;94352.84;;;22.57;26.35
43217;BME280;60511;42.686;23.300;2023-03-16T10:27:43;94350.13;;;22.57;26.06
43217;BME280;60511;42.686;23.300;2023-03-16T10:29:45;94265.91;;;22.09;26.34
43217;BME280;60511;42.686;23.300;2023-03-16T10:32:00;94277.81;;;22.08;26.26
43217;BME280;60511;42.686;23.300;2023-03-16T10:34:04;94349.34;;;22.57;26.23
43217;BME280;60511;42.686;23.300;2023-03-16T10:40:39;94281.22;;;22.05;26.39
43217;BME280;60511;42.686;23.300;2023-03-16T10:42:42;94330.91;;;22.39;26.34
43217;BME280;60511;42.686;23.300;2023-03-16T10:44:43;94308.38;;;22.32;26.35
43217;BME280;60511;42.686;23.300;2023-03-16T10:46:49;94313.44;;;22.33;26.35
43217;BME280;60511;42.686;23.300;2023-03-16T10:48:58;94346.31;;;22.58;26.41
43217;BME280;60511;42.686;23.300;2023-03-16T10:51:05;94265.22;;;21.96;26.49
43217;BME280;60511;42.686;23.300;2023-03-16T10:53:24;94270.91;;;22.11;26.43
43217;BME280;60511;42.686;23.300;2023-03-16T10:55:28;94296.66;;;22.24;26.60
43217;BME280;60511;42.686;23.300;2023-03-16T10:57:34;94356.03;;;22.63;26.48
43217;BME280;60511;42.686;23.300;2023-03-16T10:59:35;94264.75;;;22.10;26.51
43217;BME280;60511;42.686;23.300;2023-03-16T11:01:37;94224.16;;;21.83;26.24
43217;BME280;60511;42.686;23.300;2023-03-16T11:03:39;94271.78;;;22.15;26.22
43217;BME280;60511;42.686;23.300;2023-03-16T11:05:40;94282.66;;;22.18;26.34
43217;BME280;60511;42.686;23.300;2023-03-16T11:09:58;94120.38;;;21.19;26.40
43217;BME280;60511;42.686;23.300;2023-03-16T11:12:00;94307.66;;;22.35;26.30